Time;durP1;ratioP1;P1;durP2;ratioP2;P2;SDS_P1;SDS_P2;PMS_P1;PMS_P2;Temp;Humidity;BMP_temperature;BMP_pressure;BME280_temperature;BME280_humidity;BME280_pressure;Samples;Min_cycle;Max_cycle;Signal;HPM_P1;HPM_P2
2023/03/05 00:01:14;;;;;;;24.52;13.02;;;;;;;2.92;81.62;98316.22;5043280;28;20047;-82
2023/03/05 00:03:40;;;;;;;26.83;11.95;;;;;;;3.00;81.59;98318.91;5043188;28;20048;-82
2023/03/05 00:06:06;;;;;;;30.67;11.32;;;;;;;3.02;81.51;98316.16;5045309;28;20473;-82
2023/03/05 00:08:33;;;;;;;24.15;11.07;;;;;;;2.99;81.37;98319.03;5042446;28;20536;-82
2023/03/05 00:11:10;;;;;;;27.15;11.52;;;;;;;3.09;81.24;98312.00;5042125;28;20114;-82
2023/03/05 00:13:36;;;;;;;23.63;11.35;;;;;;;3.03;81.19;98310.00;5041211;28;20072;-82
2023/03/05 00:16:05;;;;;;;30.92;13.23;;;;;;;2.95;81.32;98311.56;5047593;28;20044;-82
2023/03/05 00:18:32;;;;;;;30.05;13.90;;;;;;;3.01;81.67;98309.34;5047403;28;20074;-82
2023/03/05 00:20:57;;;;;;;27.42;11.98;;;;;;;2.99;81.53;98311.25;5042126;28;20044;-82
2023/03/05 00:23:24;;;;;;;28.67;12.20;;;;;;;3.04;81.50;98304.69;5041453;28;20473;-82
2023/03/05 00:25:50;;;;;;;24.85;11.15;;;;;;;3.04;81.67;98299.50;5040626;28;20151;-83
2023/03/05 00:28:15;;;;;;;26.27;12.18;;;;;;;3.07;81.63;98306.19;5042072;28;20044;-82
2023/03/05 00:30:41;;;;;;;26.38;11.32;;;;;;;3.03;81.74;98308.22;5042650;28;20052;-82
2023/03/05 00:33:09;;;;;;;27.23;11.90;;;;;;;3.13;81.34;98308.19;5054168;28;20120;-82
2023/03/05 00:35:44;;;;;;;23.00;11.85;;;;;;;3.06;81.52;98307.13;5041004;28;20033;-82
2023/03/05 00:38:12;;;;;;;25.88;12.05;;;;;;;3.11;81.47;98310.09;5045357;28;20101;-82
2023/03/05 00:40:40;;;;;;;25.52;12.07;;;;;;;3.09;81.62;98310.25;5042645;28;20115;-82
2023/03/05 00:43:07;;;;;;;22.60;12.02;;;;;;;3.15;82.02;98316.63;5046000;28;20040;-82
2023/03/05 00:45:33;;;;;;;30.20;13.60;;;;;;;3.03;82.07;98303.06;5040650;28;20039;-82
2023/03/05 00:47:59;;;;;;;28.70;13.02;;;;;;;3.05;81.84;98311.47;5040265;28;20033;-82
2023/03/05 00:50:26;;;;;;;30.80;13.45;;;;;;;3.04;82.21;98309.03;5043863;28;20041;-82
2023/03/05 00:52:52;;;;;;;28.80;13.57;;;;;;;3.01;82.37;98314.53;5042043;28;20037;-82
2023/03/05 00:55:17;;;;;;;31.63;12.68;;;;;;;2.94;82.51;98307.34;5039919;28;20040;-82
2023/03/05 00:57:43;;;;;;;29.65;13.07;;;;;;;2.95;82.76;98305.56;5039726;28;20029;-82
2023/03/05 01:00:10;;;;;;;27.52;12.57;;;;;;;3.00;83.05;98294.75;5042807;28;20040;-82
2023/03/05 01:02:36;;;;;;;26.80;14.05;;;;;;;3.01;82.45;98299.00;5040234;28;20029;-82
2023/03/05 01:05:02;;;;;;;27.60;12.63;;;;;;;3.02;82.84;98301.44;5039673;28;20091;-82
2023/03/05 01:07:28;;;;;;;28.98;13.30;;;;;;;2.95;82.74;98290.84;5042517;28;20044;-82
2023/03/05 01:09:53;;;;;;;28.10;12.80;;;;;;;3.03;82.59;98286.69;5042581;28;20476;-82
2023/03/05 01:12:19;;;;;;;29.00;13.25;;;;;;;2.91;83.00;98278.31;5039842;28;20377;-82
2023/03/05 01:14:44;;;;;;;30.00;13.52;;;;;;;2.94;83.06;98294.41;5041373;28;20044;-82
2023/03/05 01:17:10;;;;;;;29.83;12.38;;;;;;;2.90;83.50;98287.88;5038149;28;20040;-82
2023/03/05 01:19:35;;;;;;;27.38;13.02;;;;;;;2.85;84.02;98284.91;5041339;28;20361;-83
2023/03/05 01:22:01;;;;;;;31.17;13.95;;;;;;;2.87;84.00;98288.13;5041866;28;20057;-82
2023/03/05 01:24:26;;;;;;;32.33;14.45;;;;;;;2.83;84.04;98281.66;5042034;28;20095;-82
2023/03/05 01:26:52;;;;;;;34.17;15.65;;;;;;;2.75;84.14;98273.75;5041410;28;20037;-82
2023/03/05 01:29:17;;;;;;;35.65;14.02;;;;;;;2.81;84.28;98286.13;5042194;28;20115;-83
2023/03/05 01:31:43;;;;;;;29.25;13.60;;;;;;;2.82;84.21;98277.44;5040028;28;20384;-82
2023/03/05 01:34:08;;;;;;;32.28;13.73;;;;;;;2.79;84.32;98269.13;5044926;28;20029;-82
2023/03/05 01:36:34;;;;;;;26.95;12.80;;;;;;;2.76;84.61;98270.25;5039311;28;20051;-82
2023/03/05 01:39:00;;;;;;;30.35;14.38;;;;;;;2.73;84.80;98275.69;5042180;28;20095;-82
2023/03/05 01:41:25;;;;;;;32.47;12.80;;;;;;;2.78;85.00;98273.50;5041362;28;20033;-82
2023/03/05 01:43:52;;;;;;;27.90;14.05;;;;;;;2.75;84.75;98268.59;5044567;28;20510;-82
2023/03/05 01:46:29;;;;;;;29.95;13.82;;;;;;;2.72;84.85;98261.13;5041450;28;20457;-83
2023/03/05 01:49:11;;;;;;;32.85;15.00;;;;;;;2.68;84.96;98262.38;5050347;28;20033;-82
2023/03/05 01:51:56;;;;;;;30.00;12.50;;;;;;;2.77;85.35;98263.28;5045641;28;20037;-82
2023/03/05 01:54:32;;;;;;;31.00;13.88;;;;;;;2.75;84.97;98262.59;5044879;28;20040;-82
2023/03/05 01:57:06;;;;;;;33.70;15.15;;;;;;;2.67;85.08;98250.38;5043810;28;20034;-82
2023/03/05 01:59:32;;;;;;;34.17;14.23;;;;;;;2.75;84.69;98262.59;5043525;28;20057;-82
2023/03/05 02:01:58;;;;;;;34.65;13.52;;;;;;;2.72;84.99;98255.94;5046931;28;20045;-82
2023/03/05 02:04:36;;;;;;;25.73;12.48;;;;;;;2.82;84.83;98251.53;5044571;28;20052;-82
2023/03/05 02:07:02;;;;;;;30.60;13.00;;;;;;;2.88;84.76;98248.34;5044627;28;20045;-82
2023/03/05 02:09:28;;;;;;;31.00;12.68;;;;;;;2.92;84.41;98244.47;5046331;28;20107;-82
2023/03/05 02:11:55;;;;;;;27.98;12.93;;;;;;;2.87;84.20;98235.50;5045073;28;20041;-82
2023/03/05 02:14:23;;;;;;;29.80;13.63;;;;;;;2.90;84.62;98243.00;5044054;28;20053;-83
2023/03/05 02:16:49;;;;;;;30.40;13.63;;;;;;;2.83;84.35;98239.38;5045283;28;20414;-82
2023/03/05 02:19:14;;;;;;;30.10;12.60;;;;;;;2.79;84.21;98233.66;5044453;28;20170;-83
2023/03/05 02:21:47;;;;;;;28.75;12.63;;;;;;;2.79;84.57;98232.84;5048864;28;20152;-83
2023/03/05 02:24:16;;;;;;;28.15;12.40;;;;;;;2.87;84.14;98228.56;5047590;28;20037;-82
2023/03/05 02:26:44;;;;;;;27.20;12.40;;;;;;;2.84;84.03;98228.88;5043111;28;20049;-82
2023/03/05 02:29:17;;;;;;;26.77;12.48;;;;;;;2.86;84.08;98229.53;5047735;28;20032;-82
2023/03/05 02:31:43;;;;;;;25.58;12.25;;;;;;;2.72;83.90;98213.69;5048944;28;20178;-82
2023/03/05 02:34:08;;;;;;;26.13;11.20;;;;;;;2.82;83.88;98219.59;5047542;28;20120;-82
2023/03/05 02:36:34;;;;;;;28.30;12.15;;;;;;;2.77;84.17;98209.69;5044290;28;20048;-82
2023/03/05 02:38:59;;;;;;;26.23;12.10;;;;;;;2.77;84.08;98214.88;5043360;28;20040;-82
2023/03/05 02:41:26;;;;;;;24.17;11.05;;;;;;;2.91;83.83;98200.59;5044237;28;20060;-82
2023/03/05 02:43:51;;;;;;;30.35;12.18;;;;;;;3.02;83.57;98202.16;5041832;28;20399;-82
2023/03/05 02:46:17;;;;;;;27.48;11.88;;;;;;;2.92;83.12;98195.25;5042134;28;20159;-82
2023/03/05 02:48:43;;;;;;;25.35;10.95;;;;;;;3.04;82.92;98200.22;5045088;28;20029;-82
2023/03/05 02:51:09;;;;;;;23.95;10.93;;;;;;;3.00;82.94;98193.69;5045008;28;20378;-82
2023/03/05 02:53:35;;;;;;;25.95;10.50;;;;;;;3.03;83.10;98193.41;5043342;28;20041;-82
2023/03/05 02:56:00;;;;;;;22.95;11.10;;;;;;;3.15;83.11;98187.84;5042169;28;20072;-82
2023/03/05 02:58:26;;;;;;;27.17;10.48;;;;;;;3.16;82.31;98188.66;5043930;28;20040;-82
2023/03/05 03:00:51;;;;;;;25.08;10.98;;;;;;;3.09;81.88;98192.81;5043459;28;20036;-82
2023/03/05 03:03:17;;;;;;;23.48;10.20;;;;;;;3.07;81.87;98192.16;5044195;28;20070;-82
2023/03/05 03:05:42;;;;;;;24.40;9.82;;;;;;;2.95;81.59;98197.56;5045274;28;20056;-82
2023/03/05 03:08:09;;;;;;;24.00;10.95;;;;;;;2.86;81.24;98185.47;5044702;28;20108;-82
2023/03/05 03:10:35;;;;;;;23.85;10.88;;;;;;;2.84;81.40;98186.59;5042309;28;20504;-82
2023/03/05 03:13:00;;;;;;;23.60;10.00;;;;;;;2.80;81.49;98186.06;5043517;28;20052;-82
2023/03/05 03:15:26;;;;;;;27.38;10.50;;;;;;;2.81;81.63;98181.72;5043262;28;20055;-82
2023/03/05 03:17:52;;;;;;;20.65;9.77;;;;;;;2.80;81.16;98174.91;5043119;28;20021;-83
2023/03/05 03:20:18;;;;;;;20.13;9.43;;;;;;;2.85;81.12;98181.28;5043384;28;20043;-82
2023/03/05 03:22:45;;;;;;;21.55;9.73;;;;;;;2.86;80.96;98169.13;5042495;28;20045;-83
2023/03/05 03:25:15;;;;;;;19.95;9.48;;;;;;;2.90;80.71;98173.88;5044241;28;20041;-82
2023/03/05 03:27:41;;;;;;;16.13;8.95;;;;;;;2.87;80.06;98168.97;5044495;28;20067;-82
2023/03/05 03:30:08;;;;;;;19.40;8.55;;;;;;;2.90;79.91;98176.47;5043343;28;20033;-82
2023/03/05 03:32:33;;;;;;;19.75;10.43;;;;;;;2.85;79.88;98167.50;5042384;28;20032;-82
2023/03/05 03:35:00;;;;;;;18.65;8.90;;;;;;;2.85;79.54;98165.72;5042780;28;20492;-82
2023/03/05 03:37:26;;;;;;;21.75;8.95;;;;;;;2.81;79.35;98166.97;5042662;28;20060;-82
2023/03/05 03:39:52;;;;;;;21.75;9.05;;;;;;;2.74;79.45;98158.19;5046414;28;20037;-82
2023/03/05 03:42:20;;;;;;;20.50;9.07;;;;;;;2.89;79.23;98163.66;5043010;28;20052;-82
2023/03/05 03:44:46;;;;;;;19.15;8.77;;;;;;;2.93;78.81;98163.19;5042396;28;20040;-82
2023/03/05 03:47:11;;;;;;;19.67;8.73;;;;;;;2.93;78.26;98163.19;5044786;28;20037;-82
2023/03/05 03:49:37;;;;;;;16.70;7.93;;;;;;;3.01;78.10;98159.06;5042971;28;20396;-82
2023/03/05 03:52:03;;;;;;;16.05;7.93;;;;;;;2.98;78.00;98151.56;5042108;28;20095;-83
2023/03/05 03:54:28;;;;;;;14.95;7.22;;;;;;;3.00;77.92;98152.22;5042575;28;20045;-82
2023/03/05 03:56:54;;;;;;;19.27;7.55;;;;;;;3.07;77.89;98153.28;5041436;28;20068;-82
2023/03/05 03:59:19;;;;;;;17.13;8.23;;;;;;;3.16;77.27;98150.59;5042565;28;20566;-82
2023/03/05 04:01:46;;;;;;;19.00;7.90;;;;;;;3.07;78.02;98154.09;5042051;28;20074;-82
2023/03/05 04:04:11;;;;;;;20.42;8.82;;;;;;;2.94;78.62;98148.50;5040994;28;20123;-82
2023/03/05 04:06:38;;;;;;;19.02;8.25;;;;;;;2.92;78.72;98143.44;5040853;28;20040;-82
2023/03/05 04:09:06;;;;;;;21.77;10.40;;;;;;;2.84;79.20;98138.19;5042592;28;20523;-82
2023/03/05 04:11:33;;;;;;;20.35;9.75;;;;;;;2.86;80.01;98151.00;5040926;28;20041;-82
2023/03/05 04:13:59;;;;;;;18.98;10.05;;;;;;;2.79;80.55;98150.78;5043263;28;20053;-82
2023/03/05 04:16:24;;;;;;;17.90;9.90;;;;;;;2.73;81.25;98155.75;5039876;28;20037;-82
2023/03/05 04:18:50;;;;;;;23.67;9.90;;;;;;;2.88;81.13;98143.91;5041813;28;20067;-82
2023/03/05 04:21:15;;;;;;;20.05;10.10;;;;;;;2.80;81.37;98131.69;5045803;28;20021;-82
2023/03/05 04:23:41;;;;;;;25.20;10.77;;;;;;;2.79;81.85;98140.44;5043212;28;20041;-82
2023/03/05 04:26:07;;;;;;;27.25;12.50;;;;;;;2.77;82.10;98139.78;5043617;28;20033;-82
2023/03/05 04:28:33;;;;;;;23.85;11.05;;;;;;;2.73;82.31;98133.25;5039533;28;20041;-82
2023/03/05 04:30:58;;;;;;;23.35;10.18;;;;;;;2.69;82.87;98137.09;5043369;28;20037;-82
2023/03/05 04:33:24;;;;;;;36.05;13.88;;;;;;;2.65;83.25;98133.19;5043195;28;20043;-82
2023/03/05 04:35:50;;;;;;;29.33;12.38;;;;;;;2.66;83.40;98129.63;5041851;28;20028;-82
2023/03/05 04:38:16;;;;;;;24.00;10.70;;;;;;;2.68;83.33;98133.69;5041113;28;20041;-82
2023/03/05 04:40:41;;;;;;;28.70;13.02;;;;;;;2.72;83.21;98130.81;5042156;28;20087;-82
2023/03/05 04:43:07;;;;;;;27.33;11.80;;;;;;;2.79;83.21;98130.06;5040990;28;20033;-82
2023/03/05 04:45:34;;;;;;;26.70;11.52;;;;;;;2.85;82.66;98124.28;5039356;28;20036;-82
2023/03/05 04:47:59;;;;;;;26.08;12.15;;;;;;;2.86;82.60;98125.09;5042172;28;20037;-82
2023/03/05 04:50:25;;;;;;;27.13;13.05;;;;;;;2.94;82.54;98126.00;5040922;28;20032;-82
2023/03/05 04:52:51;;;;;;;26.63;13.10;;;;;;;2.91;82.34;98115.91;5040622;28;20048;-82
2023/03/05 04:55:17;;;;;;;25.23;12.80;;;;;;;2.95;82.59;98124.22;5042035;28;20147;-82
2023/03/05 04:57:42;;;;;;;25.83;11.13;;;;;;;2.88;82.83;98118.81;5041808;28;20040;-82
2023/03/05 05:00:13;;;;;;;30.02;13.98;;;;;;;2.75;83.63;98123.53;5043029;28;20040;-83
2023/03/05 05:02:44;;;;;;;32.25;13.73;;;;;;;2.76;83.65;98114.00;5039654;28;20496;-82
2023/03/05 05:05:17;;;;;;;30.33;13.13;;;;;;;2.74;84.16;98116.75;5042156;28;20036;-82
2023/03/05 05:07:43;;;;;;;27.95;12.18;;;;;;;2.79;84.43;98109.34;5042905;28;20033;-82
2023/03/05 05:10:11;;;;;;;30.23;13.48;;;;;;;2.85;84.05;98113.91;5043079;28;20786;-82
2023/03/05 05:12:37;;;;;;;31.20;13.02;;;;;;;2.76;83.96;98114.84;5041945;28;20472;-82
2023/03/05 05:15:05;;;;;;;29.25;13.02;;;;;;;2.84;83.93;98112.31;5040138;28;20087;-82
2023/03/05 05:17:32;;;;;;;29.80;12.93;;;;;;;2.78;84.26;98105.13;5041419;28;20044;-82
2023/03/05 05:20:00;;;;;;;35.00;14.15;;;;;;;3.00;83.96;98110.78;5045557;28;20025;-82
2023/03/05 05:22:28;;;;;;;29.15;13.48;;;;;;;3.07;83.24;98114.41;5047045;28;20057;-82
2023/03/05 05:24:54;;;;;;;31.45;12.55;;;;;;;3.04;83.11;98112.91;5047961;28;20531;-82
2023/03/05 05:27:21;;;;;;;31.25;13.43;;;;;;;2.89;83.64;98114.44;5048667;28;20041;-82
2023/03/05 05:29:49;;;;;;;26.30;13.55;;;;;;;2.87;83.54;98118.94;5046159;28;20541;-82
2023/03/05 05:32:16;;;;;;;28.45;12.98;;;;;;;2.84;83.94;98109.72;5044767;28;20041;-83
2023/03/05 05:34:42;;;;;;;31.58;13.95;;;;;;;2.81;83.88;98107.41;5044248;28;20127;-82
2023/03/05 05:37:07;;;;;;;28.63;13.63;;;;;;;2.86;84.13;98104.38;5046223;28;20029;-82
2023/03/05 05:39:34;;;;;;;28.75;12.65;;;;;;;2.89;83.97;98110.06;5049002;28;20528;-82
2023/03/05 05:42:00;;;;;;;28.85;13.07;;;;;;;2.82;83.87;98116.81;5045679;28;20028;-82
2023/03/05 05:44:25;;;;;;;32.53;12.85;;;;;;;2.88;83.83;98118.81;5044803;28;20055;-82
2023/03/05 05:46:51;;;;;;;32.65;13.57;;;;;;;2.78;84.08;98107.72;5042485;28;20024;-82
2023/03/05 05:49:17;;;;;;;30.60;13.73;;;;;;;2.74;84.29;98116.75;5043016;28;20033;-83
2023/03/05 05:51:42;;;;;;;30.23;12.25;;;;;;;2.79;84.64;98109.34;5045746;28;20091;-82
2023/03/05 05:54:13;;;;;;;33.13;14.77;;;;;;;2.72;84.44;98108.31;5045896;28;20465;-82
2023/03/05 05:56:39;;;;;;;29.27;13.07;;;;;;;2.75;84.63;98110.59;5045053;28;20501;-82
2023/03/05 05:59:04;;;;;;;35.35;14.10;;;;;;;2.71;84.37;98091.16;5043948;28;20154;-82
2023/03/05 06:01:32;;;;;;;31.90;13.20;;;;;;;2.89;84.32;98109.25;5043262;28;20077;-82
2023/03/05 06:03:58;;;;;;;32.60;13.60;;;;;;;2.88;83.94;98102.47;5044056;28;20512;-82
2023/03/05 06:06:25;;;;;;;30.70;13.15;;;;;;;3.03;83.19;98113.09;5044295;28;20037;-82
2023/03/05 06:08:52;;;;;;;24.90;13.07;;;;;;;3.04;83.17;98117.28;5056519;28;20045;-82
2023/03/05 06:11:18;;;;;;;30.08;12.57;;;;;;;3.09;82.95;98120.25;5046000;28;20504;-82
2023/03/05 06:13:44;;;;;;;26.45;12.20;;;;;;;3.08;82.71;98108.25;5047190;28;20571;-82
2023/03/05 06:16:17;;;;;;;27.58;13.27;;;;;;;3.01;82.58;98122.78;5045213;28;20037;-82
2023/03/05 06:18:43;;;;;;;29.30;12.63;;;;;;;2.96;82.60;98110.28;5044883;28;20131;-82
2023/03/05 06:21:15;;;;;;;27.63;11.98;;;;;;;2.90;82.60;98113.47;5046256;28;20049;-82
2023/03/05 06:23:42;;;;;;;29.48;11.82;;;;;;;2.97;83.12;98114.50;5048400;28;20035;-82
2023/03/05 06:26:12;;;;;;;30.70;12.88;;;;;;;2.91;82.62;98110.72;5044346;28;20036;-82
2023/03/05 06:28:37;;;;;;;25.23;11.10;;;;;;;2.94;82.73;98117.41;5045226;28;20108;-82
2023/03/05 06:31:16;;;;;;;29.80;10.80;;;;;;;2.87;82.49;98106.81;5042487;28;20033;-82
2023/03/05 06:33:42;;;;;;;26.10;11.77;;;;;;;2.82;82.82;98114.25;5045638;28;20507;-82
2023/03/05 06:36:12;;;;;;;28.55;11.32;;;;;;;2.92;82.71;98117.53;5044120;28;20049;-82
2023/03/05 06:38:39;;;;;;;24.65;10.90;;;;;;;2.99;82.40;98114.34;5044325;28;20033;-82
2023/03/05 06:41:10;;;;;;;23.70;11.02;;;;;;;2.98;82.23;98110.94;5042523;28;20128;-82
2023/03/05 06:43:42;;;;;;;26.00;10.82;;;;;;;3.00;82.31;98116.81;5043820;28;20037;-82
2023/03/05 06:46:18;;;;;;;24.63;10.95;;;;;;;3.11;82.25;98118.31;5040167;28;20041;-82
2023/03/05 06:48:45;;;;;;;26.45;11.75;;;;;;;3.08;81.98;98113.44;5043261;28;20033;-82
2023/03/05 06:51:23;;;;;;;25.85;11.38;;;;;;;3.03;82.21;98115.66;5056521;28;20036;-82
2023/03/05 06:53:50;;;;;;;25.25;10.85;;;;;;;3.07;81.68;98107.44;5044035;28;20120;-82
2023/03/05 06:56:18;;;;;;;25.27;12.60;;;;;;;3.17;81.66;98118.50;5042546;28;20045;-82
2023/03/05 06:58:47;;;;;;;27.83;10.77;;;;;;;3.23;81.43;98115.31;5047266;28;20082;-82
2023/03/05 07:01:14;;;;;;;21.90;11.10;;;;;;;3.27;81.35;98113.25;5043901;28;20511;-82
2023/03/05 07:03:42;;;;;;;25.58;11.32;;;;;;;3.37;81.08;98106.19;5044751;28;20033;-83
2023/03/05 07:06:13;;;;;;;30.75;13.10;;;;;;;3.38;80.69;98102.63;5045101;28;20061;-82
2023/03/05 07:08:39;;;;;;;26.95;12.02;;;;;;;3.37;81.35;98105.38;5043849;28;20560;-82
2023/03/05 07:11:17;;;;;;;33.92;13.63;;;;;;;3.32;81.63;98111.00;5046046;28;20119;-82
2023/03/05 07:13:46;;;;;;;27.80;13.27;;;;;;;3.30;82.14;98105.16;5041764;28;20055;-82
2023/03/05 07:16:17;;;;;;;28.92;13.00;;;;;;;3.34;82.19;98114.25;5043346;28;20041;-82
2023/03/05 07:18:43;;;;;;;31.98;13.02;;;;;;;3.39;82.23;98104.22;5043719;28;20033;-82
2023/03/05 07:21:13;;;;;;;32.28;14.80;;;;;;;3.29;82.87;98106.13;5047254;28;20094;-82
2023/03/05 07:23:39;;;;;;;34.17;15.30;;;;;;;3.35;83.07;98108.09;5043560;28;20041;-82
2023/03/05 07:26:05;;;;;;;31.52;14.57;;;;;;;3.29;82.80;98111.31;5054424;28;20044;-82
2023/03/05 07:28:33;;;;;;;30.95;14.05;;;;;;;3.30;82.93;98107.75;5043703;28;20045;-82
2023/03/05 07:31:10;;;;;;;35.03;14.23;;;;;;;3.39;83.12;98108.59;5044477;28;20136;-82
2023/03/05 07:33:36;;;;;;;30.58;14.10;;;;;;;3.45;83.03;98106.22;5041842;28;20041;-82
2023/03/05 07:36:03;;;;;;;28.77;13.27;;;;;;;3.46;82.71;98094.88;5041857;28;20041;-82
2023/03/05 07:38:30;;;;;;;30.42;12.75;;;;;;;3.51;82.48;98098.78;5043417;28;20138;-82
2023/03/05 07:40:56;;;;;;;31.13;14.07;;;;;;;3.49;82.31;98086.78;5042645;28;20040;-82
2023/03/05 07:43:21;;;;;;;30.45;13.57;;;;;;;3.64;82.24;98099.16;5040685;28;20033;-82
2023/03/05 07:45:47;;;;;;;35.10;15.27;;;;;;;3.45;82.12;98098.44;5039375;28;20032;-83
2023/03/05 07:48:19;;;;;;;28.52;12.85;;;;;;;3.55;82.13;98095.75;5042813;28;20049;-82
2023/03/05 07:50:46;;;;;;;31.42;13.18;;;;;;;3.51;81.95;98093.59;5042788;28;20029;-82
2023/03/05 07:53:11;;;;;;;31.38;12.07;;;;;;;3.60;81.25;98087.47;5042840;28;20033;-82
2023/03/05 07:55:47;;;;;;;29.40;12.23;;;;;;;3.74;80.93;98089.50;5041285;28;20060;-82
2023/03/05 07:58:13;;;;;;;26.60;12.52;;;;;;;3.88;80.95;98096.66;5043306;28;20057;-82
2023/03/05 08:00:40;;;;;;;28.00;13.68;;;;;;;3.88;80.33;98099.25;5041493;28;20048;-82
2023/03/05 08:03:06;;;;;;;24.95;11.98;;;;;;;3.59;79.68;98076.28;5042614;28;20529;-83
2023/03/05 08:05:32;;;;;;;32.78;10.98;;;;;;;3.66;79.94;98092.88;5043840;28;20040;-82
2023/03/05 08:07:57;;;;;;;33.40;13.35;;;;;;;3.68;80.37;98100.50;5042744;28;20045;-82
2023/03/05 08:10:24;;;;;;;26.60;12.48;;;;;;;3.66;80.15;98097.25;5044589;28;20393;-83
2023/03/05 08:12:49;;;;;;;22.75;11.02;;;;;;;3.65;79.80;98086.03;5042224;28;20107;-82
2023/03/05 08:15:15;;;;;;;32.50;12.55;;;;;;;3.68;79.97;98087.53;5043456;28;20029;-82
2023/03/05 08:17:41;;;;;;;20.55;9.88;;;;;;;3.95;79.58;98092.47;5040024;28;20174;-82
2023/03/05 08:20:09;;;;;;;26.35;11.63;;;;;;;3.90;78.80;98076.59;5044261;28;20044;-82
2023/03/05 08:22:38;;;;;;;26.58;11.88;;;;;;;3.82;78.39;98092.09;5042071;28;20025;-82
2023/03/05 08:25:05;;;;;;;24.05;11.68;;;;;;;3.73;78.34;98090.47;5037379;28;20037;-82
2023/03/05 08:27:31;;;;;;;24.58;13.38;;;;;;;3.64;78.19;98088.78;5044509;28;20049;-82
2023/03/05 08:29:56;;;;;;;26.70;10.98;;;;;;;3.60;78.94;98082.28;5053195;28;20036;-82
2023/03/05 08:32:23;;;;;;;27.13;11.75;;;;;;;3.76;79.12;98088.34;5037367;28;20040;-82
2023/03/05 08:34:48;;;;;;;21.85;10.57;;;;;;;3.84;78.37;98085.00;5036312;28;20033;-82
2023/03/05 08:37:14;;;;;;;21.60;9.63;;;;;;;3.87;78.40;98076.88;5039931;28;20044;-82
2023/03/05 08:39:39;;;;;;;20.80;8.98;;;;;;;3.88;77.25;98086.28;5040019;28;20116;-82
2023/03/05 08:42:05;;;;;;;17.02;8.30;;;;;;;3.96;76.83;98075.97;5039565;28;20033;-82
2023/03/05 08:44:31;;;;;;;16.60;7.20;;;;;;;3.93;75.07;98083.22;5041165;28;20052;-82
2023/03/05 08:46:56;;;;;;;16.70;7.07;;;;;;;4.06;74.87;98082.78;5038381;28;20029;-83
2023/03/05 08:49:22;;;;;;;13.20;7.05;;;;;;;4.11;75.04;98083.13;5039950;28;20082;-82
2023/03/05 08:51:48;;;;;;;13.57;6.43;;;;;;;4.06;73.66;98083.59;5041770;28;20037;-82
2023/03/05 08:54:13;;;;;;;17.40;7.47;;;;;;;4.13;73.57;98073.38;5040493;28;20037;-82
2023/03/05 08:56:39;;;;;;;13.00;6.72;;;;;;;4.03;74.06;98079.53;5040202;28;20033;-82
2023/03/05 08:59:05;;;;;;;15.93;7.07;;;;;;;4.07;74.24;98079.19;5041559;28;20547;-83
2023/03/05 09:01:31;;;;;;;15.20;7.43;;;;;;;3.85;73.66;98080.63;5040660;28;20051;-82
2023/03/05 09:03:59;;;;;;;13.32;6.25;;;;;;;3.83;74.31;98077.34;5042040;28;20060;-82
2023/03/05 09:06:26;;;;;;;14.05;6.35;;;;;;;3.92;74.43;98064.25;5040273;28;20426;-82
2023/03/05 09:08:53;;;;;;;14.32;6.25;;;;;;;3.91;73.32;98080.81;5041722;28;20036;-82
2023/03/05 09:11:18;;;;;;;12.45;5.70;;;;;;;3.74;73.33;98074.75;5041639;28;20043;-82
2023/03/05 09:13:44;;;;;;;11.77;6.50;;;;;;;3.78;73.49;98070.06;5042702;28;20049;-82
2023/03/05 09:16:14;;;;;;;13.90;5.38;;;;;;;3.79;73.86;98056.13;5042422;28;20033;-82
2023/03/05 09:18:41;;;;;;;10.53;5.13;;;;;;;3.83;73.81;98061.78;5040925;28;20028;-82
2023/03/05 09:21:10;;;;;;;7.70;4.40;;;;;;;3.89;72.73;98068.94;5040828;28;20283;-82
2023/03/05 09:23:37;;;;;;;6.05;3.35;;;;;;;3.94;71.51;98074.47;5043231;28;20045;-82
2023/03/05 09:26:06;;;;;;;7.07;3.63;;;;;;;3.86;71.48;98064.88;5044462;28;20041;-82
2023/03/05 09:28:32;;;;;;;6.72;3.30;;;;;;;3.69;70.99;98066.59;5038408;28;20764;-82
2023/03/05 09:31:02;;;;;;;7.13;3.35;;;;;;;3.71;71.00;98069.03;5042260;28;20037;-82
2023/03/05 09:33:29;;;;;;;8.23;3.67;;;;;;;3.81;71.58;98064.53;5040826;28;20045;-82
2023/03/05 09:35:54;;;;;;;4.95;3.03;;;;;;;3.87;70.81;98058.72;5039870;28;20056;-82
2023/03/05 09:38:20;;;;;;;7.78;2.92;;;;;;;4.02;70.69;98061.53;5040875;28;20033;-82
2023/03/05 09:41:02;;;;;;;8.27;3.90;;;;;;;3.86;69.78;98051.09;5040864;28;20116;-82
2023/03/05 09:43:57;;;;;;;5.43;3.70;;;;;;;3.91;69.43;98059.22;5040885;28;20444;-82
2023/03/05 09:47:00;;;;;;;4.38;3.00;;;;;;;3.97;69.34;98048.22;5036899;28;20061;-82
2023/03/05 09:50:00;;;;;;;6.80;3.83;;;;;;;3.94;68.74;98045.94;5040062;28;20045;-82
2023/03/05 09:52:52;;;;;;;9.35;3.05;;;;;;;3.90;68.87;98058.44;5039677;28;20108;-82
2023/03/05 09:55:39;;;;;;;5.30;3.15;;;;;;;3.94;68.83;98051.94;5037764;28;20044;-82
2023/03/05 09:58:21;;;;;;;5.10;2.97;;;;;;;3.86;68.03;98049.31;5041370;28;20108;-82
2023/03/05 10:00:54;;;;;;;7.72;3.17;;;;;;;3.81;67.91;98043.78;5045141;28;20472;-82
2023/03/05 10:03:38;;;;;;;3.97;2.25;;;;;;;4.03;67.99;98047.59;5039465;28;20029;-82
2023/03/05 10:06:22;;;;;;;8.68;3.15;;;;;;;4.07;67.49;98046.28;5045556;28;20108;-82
2023/03/05 10:08:57;;;;;;;5.82;3.20;;;;;;;4.03;67.86;98042.41;5045611;28;20071;-82
2023/03/05 10:11:53;;;;;;;4.25;2.28;;;;;;;3.99;66.41;98041.88;5044895;28;20029;-82
2023/03/05 10:14:33;;;;;;;4.25;2.15;;;;;;;3.89;65.28;98030.03;5043774;28;20087;-82
2023/03/05 10:17:22;;;;;;;6.88;2.92;;;;;;;3.93;63.64;98026.94;5044981;28;20076;-82
2023/03/05 10:20:20;;;;;;;3.33;2.47;;;;;;;4.08;64.07;98028.91;5044436;28;20618;-82
2023/03/05 10:23:28;;;;;;;5.20;2.30;;;;;;;4.03;64.89;98016.44;5049236;28;20509;-82
2023/03/05 10:26:29;;;;;;;3.15;2.28;;;;;;;4.23;63.81;98022.94;5045217;28;20380;-82
2023/03/05 10:29:32;;;;;;;2.97;2.33;;;;;;;4.36;63.85;98030.25;5046331;28;20098;-82
2023/03/05 10:32:15;;;;;;;3.22;2.20;;;;;;;4.46;62.65;98023.13;5041109;28;20080;-82
2023/03/05 10:35:30;;;;;;;3.63;2.30;;;;;;;4.62;62.46;98026.66;5042579;28;20060;-82
2023/03/05 10:38:25;;;;;;;2.70;1.98;;;;;;;4.81;61.98;98018.56;5045523;28;20051;-82
2023/03/05 10:40:54;;;;;;;7.20;2.40;;;;;;;4.88;62.31;98014.31;5046084;28;20045;-81
2023/03/05 10:43:54;;;;;;;5.28;2.67;;;;;;;4.69;60.47;98018.09;5045025;28;20096;-82
2023/03/05 10:46:31;;;;;;;3.90;2.13;;;;;;;4.98;61.23;98012.34;5041820;28;20034;-82
2023/03/05 10:49:25;;;;;;;4.90;2.45;;;;;;;4.83;60.86;98014.81;5044924;28;20037;-82
2023/03/05 10:51:59;;;;;;;5.40;2.42;;;;;;;4.61;61.55;98005.09;5042860;28;20035;-82
2023/03/05 10:54:33;;;;;;;4.18;2.50;;;;;;;4.47;61.40;98003.97;5045488;28;20492;-82
2023/03/05 10:57:29;;;;;;;5.72;2.65;;;;;;;4.37;62.56;98000.72;5043854;28;20045;-82
2023/03/05 11:00:26;;;;;;;6.38;2.88;;;;;;;4.20;62.63;97996.50;5043455;28;20038;-82
2023/03/05 11:02:58;;;;;;;4.85;3.63;;;;;;;4.25;63.23;97992.44;5043055;28;20492;-82
2023/03/05 11:05:47;;;;;;;5.55;2.70;;;;;;;4.28;62.68;97986.94;5044699;28;20045;-81
2023/03/05 11:08:33;;;;;;;4.43;2.35;;;;;;;4.19;61.27;97981.88;5043318;28;20053;-82
2023/03/05 11:11:11;;;;;;;4.05;2.10;;;;;;;4.17;61.26;97986.44;5044039;28;20131;-82
2023/03/05 11:13:59;;;;;;;5.43;2.50;;;;;;;3.97;62.10;97976.38;5044338;28;20052;-82
2023/03/05 11:16:47;;;;;;;5.13;2.30;;;;;;;4.07;62.40;97980.56;5043643;28;20068;-82
2023/03/05 11:19:12;;;;;;;5.18;1.95;;;;;;;4.17;62.42;97976.88;5043085;28;20116;-82
2023/03/05 11:21:39;;;;;;;4.60;2.55;;;;;;;4.25;61.89;97970.84;5044437;28;20159;-82
2023/03/05 11:24:17;;;;;;;4.50;2.33;;;;;;;4.27;61.25;97966.34;5058094;28;20045;-82
2023/03/05 11:26:52;;;;;;;4.00;1.80;;;;;;;4.53;61.01;97969.53;5045635;28;20037;-81
2023/03/05 11:29:26;;;;;;;2.50;1.85;;;;;;;4.79;60.43;97965.91;5044682;28;20034;-82
2023/03/05 11:31:54;;;;;;;6.15;1.70;;;;;;;4.84;58.30;97953.25;5042971;28;20041;-82
2023/03/05 11:34:22;;;;;;;4.50;1.90;;;;;;;4.96;57.86;97954.50;5041554;28;20033;-82
2023/03/05 11:36:54;;;;;;;3.17;1.60;;;;;;;5.09;58.07;97940.97;5041331;28;20037;-82
2023/03/05 11:39:23;;;;;;;4.13;2.50;;;;;;;5.13;55.69;97941.47;5041076;28;20123;-82
2023/03/05 11:41:51;;;;;;;3.72;1.75;;;;;;;5.15;55.94;97939.50;5042446;28;20033;-82